EDDE/ERF METAR and TAF weather

Enter ICAO airport designator
Station Type Date Time Source
EDDE METAR 2019/04/19 22:20 UTC NOAA

EDDE 192220Z VRB02KT CAVOK 14/01 Q1030


Station Type Date Time Source
EDDE Decoded METAR 2019/04/19 22:20 UTC NOAA

Erfurt-Bindersleben, Germany (EDDE) 50-59N 010-58E 322M
Apr 19, 2019 - 06:20 PM EDT / 2019.04.19 2220 UTC
Wind: Variable at 2 MPH (2 KT):0
Visibility: greater than 7 mile(s):0
Temperature: 57 F (14 C)
Dew Point: 33 F (1 C)
Relative Humidity: 41%
Pressure (altimeter): 30.42 in. Hg (1030 hPa)
ob: EDDE 192220Z VRB02KT CAVOK 14/01 Q1030
cycle: 22

Station Type Date Time Source
EDDE TAF 2019/04/19 18:27 UTC NOAA

TAF TAF EDDE 191700Z 1918/2018 06009KT CAVOK
BECMG 1919/1921 05004KT
BECMG 2010/2012 06009KT

Example: see airport list